Time;durP1;ratioP1;P1;durP2;ratioP2;P2;SDS_P1;SDS_P2;PMS_P1;PMS_P2;Temp;Humidity;BMP_temperature;BMP_pressure;BME280_temperature;BME280_humidity;BME280_pressure;Samples;Min_cycle;Max_cycle;Signal;HPM_P1;HPM_P2
2022/12/20 00:00:33;;;;;;;55.58;30.50;;;;;;;1.37;100.00;100923.91;5033762;28;20245;-75
2022/12/20 00:02:59;;;;;;;57.03;30.40;;;;;;;1.34;100.00;100923.94;5047397;28;20204;-75
2022/12/20 00:05:26;;;;;;;52.80;30.30;;;;;;;1.36;100.00;100907.13;5049853;28;20225;-74
2022/12/20 00:07:52;;;;;;;54.42;30.75;;;;;;;1.38;100.00;100908.00;5048291;28;20243;-75
2022/12/20 00:10:20;;;;;;;54.15;29.90;;;;;;;1.42;100.00;100908.88;5047948;28;20647;-74
2022/12/20 00:12:47;;;;;;;52.97;29.75;;;;;;;1.44;100.00;100907.97;5049283;28;20210;-75
2022/12/20 00:15:13;;;;;;;46.78;29.15;;;;;;;1.48;100.00;100892.94;5047441;28;20662;-75
2022/12/20 00:17:40;;;;;;;50.40;29.80;;;;;;;1.50;100.00;100888.53;5039662;28;20204;-75
2022/12/20 00:20:08;;;;;;;50.53;29.48;;;;;;;1.52;100.00;100884.09;5038905;28;20203;-74
2022/12/20 00:22:34;;;;;;;46.65;28.17;;;;;;;1.52;100.00;100883.22;5038653;28;20215;-75
2022/12/20 00:25:01;;;;;;;48.47;28.65;;;;;;;1.53;100.00;100882.31;5036924;28;20225;-76
2022/12/20 00:27:29;;;;;;;51.13;29.95;;;;;;;1.48;100.00;100879.69;5035616;28;20200;-77
2022/12/20 00:29:55;;;;;;;53.30;29.90;;;;;;;1.46;100.00;100876.13;5035967;28;20227;-75
2022/12/20 00:32:22;;;;;;;46.70;29.30;;;;;;;1.47;100.00;100875.28;5035908;28;20290;-74
2022/12/20 00:34:48;;;;;;;51.30;29.02;;;;;;;1.49;100.00;100868.16;5035985;28;20228;-75
2022/12/20 00:37:15;;;;;;;52.20;28.83;;;;;;;1.50;100.00;100880.56;5035814;28;20208;-75
2022/12/20 00:39:41;;;;;;;50.50;27.58;;;;;;;1.47;100.00;100872.63;5035693;28;20195;-75
2022/12/20 00:42:08;;;;;;;49.35;29.45;;;;;;;1.49;100.00;100880.56;5043389;28;20206;-74
2022/12/20 00:44:36;;;;;;;55.72;31.23;;;;;;;1.41;100.00;100868.19;5043190;28;20307;-75
2022/12/20 00:47:02;;;;;;;55.50;29.85;;;;;;;1.46;100.00;100877.00;5039145;28;20204;-74
2022/12/20 00:49:29;;;;;;;53.75;30.58;;;;;;;1.30;100.00;100871.72;5035221;28;20244;-73
2022/12/20 00:51:55;;;;;;;50.03;28.38;;;;;;;1.34;100.00;100878.81;5035765;28;20202;-75
2022/12/20 00:54:22;;;;;;;58.63;32.60;;;;;;;1.32;100.00;100867.31;5035011;28;20207;-75
2022/12/20 00:56:48;;;;;;;59.78;31.77;;;;;;;1.41;100.00;100859.34;5034827;28;20231;-75
2022/12/20 00:59:15;;;;;;;62.03;32.88;;;;;;;1.45;100.00;100856.69;5035271;28;20564;-75
2022/12/20 01:01:43;;;;;;;59.75;30.98;;;;;;;1.44;100.00;100862.84;5035476;28;20203;-75
2022/12/20 01:04:10;;;;;;;55.92;32.63;;;;;;;1.42;100.00;100858.44;5035541;28;20237;-74
2022/12/20 01:06:37;;;;;;;52.63;29.77;;;;;;;1.41;100.00;100864.66;5034859;28;20224;-75
2022/12/20 01:09:04;;;;;;;60.05;30.83;;;;;;;1.45;100.00;100869.06;5034652;28;20222;-75
2022/12/20 01:11:32;;;;;;;57.63;30.85;;;;;;;1.48;100.00;100863.75;5035536;28;20232;-74
2022/12/20 01:14:01;;;;;;;57.88;31.48;;;;;;;1.58;100.00;100865.53;5037943;28;20210;-74
2022/12/20 01:16:30;;;;;;;50.50;30.52;;;;;;;1.50;100.00;100866.41;5034695;28;20781;-74
2022/12/20 01:18:58;;;;;;;56.10;30.10;;;;;;;1.53;100.00;100866.41;5034819;28;20195;-76
2022/12/20 01:21:27;;;;;;;54.47;30.20;;;;;;;1.59;100.00;100869.94;5034913;28;20212;-76
2022/12/20 01:23:54;;;;;;;56.13;31.10;;;;;;;1.53;100.00;100866.41;5035084;28;20547;-75
2022/12/20 01:26:23;;;;;;;48.45;30.10;;;;;;;1.54;100.00;100858.44;5036268;28;20225;-76
2022/12/20 01:28:53;;;;;;;54.20;31.10;;;;;;;1.57;100.00;100860.22;5036053;28;20223;-76
2022/12/20 01:31:21;;;;;;;49.45;30.63;;;;;;;1.58;100.00;100859.31;5035061;28;20209;-75
2022/12/20 01:33:48;;;;;;;54.65;31.90;;;;;;;1.58;100.00;100849.59;5034517;28;20204;-75
2022/12/20 01:36:18;;;;;;;48.15;29.70;;;;;;;1.62;100.00;100867.25;5034573;28;20592;-76
2022/12/20 01:38:45;;;;;;;53.40;30.92;;;;;;;1.66;100.00;100868.16;5034430;28;20608;-75
2022/12/20 01:41:15;;;;;;;53.55;30.38;;;;;;;1.67;100.00;100854.88;5034802;28;20203;-75
2022/12/20 01:43:49;;;;;;;49.95;30.48;;;;;;;1.69;100.00;100856.63;5034713;28;20212;-75
2022/12/20 01:46:16;;;;;;;49.13;28.30;;;;;;;1.72;100.00;100868.16;5034061;28;20225;-74
2022/12/20 01:48:46;;;;;;;49.72;30.15;;;;;;;1.73;100.00;100864.59;5033782;28;20204;-75
2022/12/20 01:51:13;;;;;;;52.15;30.33;;;;;;;1.67;100.00;100856.63;5034504;28;20232;-74
2022/12/20 01:53:41;;;;;;;51.42;31.73;;;;;;;1.66;100.00;100857.53;5034148;28;20227;-75
2022/12/20 01:56:09;;;;;;;61.35;34.10;;;;;;;1.67;100.00;100862.84;5033430;28;20232;-74
2022/12/20 01:58:38;;;;;;;65.30;38.03;;;;;;;1.56;100.00;100853.09;5013988;28;20207;-74
2022/12/20 02:01:05;;;;;;;63.63;36.08;;;;;;;1.57;100.00;100836.31;5022010;28;20287;-75
2022/12/20 02:03:32;;;;;;;61.15;34.47;;;;;;;1.42;100.00;100835.44;5024267;28;20204;-75
2022/12/20 02:06:14;;;;;;;54.08;33.28;;;;;;;1.45;100.00;100831.91;5038176;28;20238;-75
2022/12/20 02:08:43;;;;;;;90.70;46.05;;;;;;;1.56;100.00;100839.84;5047965;28;20251;-75
2022/12/20 02:11:24;;;;;;;77.18;40.33;;;;;;;1.36;100.00;100835.47;5048754;28;20230;-74
2022/12/20 02:14:01;;;;;;;68.88;39.80;;;;;;;1.39;100.00;100829.25;5039508;28;20219;-75
2022/12/20 02:16:33;;;;;;;68.68;39.15;;;;;;;1.39;100.00;100827.47;5033871;28;20227;-75
2022/12/20 02:19:09;;;;;;;90.50;46.25;;;;;;;1.47;100.00;100808.91;5033149;28;20203;-74
2022/12/20 02:21:42;;;;;;;82.70;42.20;;;;;;;1.35;100.00;100812.44;5033996;28;20198;-75
2022/12/20 02:24:40;;;;;;;85.45;47.22;;;;;;;1.26;100.00;100799.19;5034084;28;20545;-75
2022/12/20 02:27:27;;;;;;;69.50;39.88;;;;;;;1.36;100.00;100800.94;5033713;28;20199;-74
2022/12/20 02:30:05;;;;;;;70.30;40.95;;;;;;;1.35;100.00;100796.50;5036103;28;20212;-75
2022/12/20 02:32:37;;;;;;;82.13;44.92;;;;;;;1.24;100.00;100791.25;5040777;28;20186;-74
2022/12/20 02:35:06;;;;;;;86.80;47.03;;;;;;;1.20;100.00;100789.47;5034721;28;20598;-73
2022/12/20 02:37:33;;;;;;;79.63;42.53;;;;;;;1.26;100.00;100783.25;5034720;28;20203;-77
2022/12/20 02:40:00;;;;;;;94.45;49.70;;;;;;;1.30;100.00;100782.38;5034597;28;20288;-74
2022/12/20 02:42:29;;;;;;;79.47;45.10;;;;;;;1.41;100.00;100787.66;5033988;28;20202;-74
2022/12/20 02:45:14;;;;;;;68.07;39.33;;;;;;;1.44;100.00;100791.19;5033439;28;20225;-75
2022/12/20 02:47:48;;;;;;;65.25;38.60;;;;;;;1.50;100.00;100778.81;5032259;28;20205;-75
2022/12/20 02:50:18;;;;;;;70.60;38.03;;;;;;;1.52;100.00;100788.53;5032129;28;20229;-75
2022/12/20 02:52:46;;;;;;;81.05;44.20;;;;;;;1.57;100.00;100777.91;5033391;28;20207;-74
2022/12/20 02:55:12;;;;;;;78.10;41.72;;;;;;;1.60;100.00;100775.22;5033011;28;20323;-74
2022/12/20 02:57:45;;;;;;;71.45;41.53;;;;;;;1.62;100.00;100765.50;5032634;28;20208;-73
2022/12/20 03:00:16;;;;;;;67.63;38.50;;;;;;;1.66;100.00;100770.78;5033120;28;20200;-75
2022/12/20 03:05:29;;;;;;;67.68;37.78;;;;;;;1.64;100.00;100759.28;5043643;28;20307;-73
2022/12/20 03:07:55;;;;;;;61.17;37.53;;;;;;;1.66;100.00;100759.28;5040106;28;20217;-75
2022/12/20 03:10:22;;;;;;;61.10;37.83;;;;;;;1.65;100.00;100770.78;5039609;28;20222;-75
2022/12/20 03:12:49;;;;;;;89.03;46.55;;;;;;;1.57;100.00;100776.13;5038214;28;20571;-75
2022/12/20 03:15:17;;;;;;;78.68;42.20;;;;;;;1.57;100.00;100770.81;5035171;28;20718;-74
2022/12/20 03:17:44;;;;;;;71.97;40.30;;;;;;;1.56;100.00;100771.72;5035395;28;20256;-75
2022/12/20 03:20:11;;;;;;;62.15;37.05;;;;;;;1.56;100.00;100766.41;5035379;28;20204;-76
2022/12/20 03:22:37;;;;;;;87.75;47.58;;;;;;;1.60;100.00;100759.31;5033848;28;20213;-75
2022/12/20 03:25:05;;;;;;;105.03;53.58;;;;;;;1.61;100.00;100767.28;5032856;28;20222;-75
2022/12/20 03:27:31;;;;;;;104.45;53.90;;;;;;;1.57;100.00;100770.81;5032960;28;20219;-75
2022/12/20 03:29:58;;;;;;;108.60;54.33;;;;;;;1.64;100.00;100769.91;5032528;28;20215;-76
2022/12/20 03:32:26;;;;;;;117.32;59.38;;;;;;;1.67;100.00;100774.31;5032660;28;20203;-76
2022/12/20 03:34:52;;;;;;;109.50;57.17;;;;;;;1.65;100.00;100760.16;5033589;28;20618;-76
2022/12/20 03:37:19;;;;;;;100.97;54.95;;;;;;;1.66;100.00;100762.81;5032807;28;20204;-75
2022/12/20 03:39:45;;;;;;;71.32;40.80;;;;;;;1.68;100.00;100765.47;5031974;28;20204;-75
2022/12/20 03:42:12;;;;;;;72.07;41.83;;;;;;;1.72;100.00;100751.31;5032645;28;20207;-74
2022/12/20 03:44:38;;;;;;;70.70;39.40;;;;;;;1.75;100.00;100755.72;5032176;28;20657;-75
2022/12/20 03:47:05;;;;;;;61.50;34.75;;;;;;;1.74;100.00;100749.53;5033073;28;20208;-74
2022/12/20 03:49:33;;;;;;;73.53;39.20;;;;;;;1.72;100.00;100751.31;5035927;28;20201;-75
2022/12/20 03:51:59;;;;;;;74.07;41.50;;;;;;;1.69;100.00;100738.03;5036599;28;20571;-75
2022/12/20 03:54:27;;;;;;;85.00;43.28;;;;;;;1.64;100.00;100740.69;5036381;28;20203;-76
2022/12/20 03:56:53;;;;;;;65.95;35.90;;;;;;;1.65;100.00;100734.53;5036063;28;20318;-76
2022/12/20 03:59:20;;;;;;;80.03;42.97;;;;;;;1.67;100.00;100726.53;5038656;28;20563;-75
2022/12/20 04:01:47;;;;;;;50.90;31.63;;;;;;;1.68;100.00;100744.25;5036976;28;20203;-75
2022/12/20 04:04:15;;;;;;;52.08;31.90;;;;;;;1.69;100.00;100747.78;5036783;28;20208;-75
2022/12/20 04:06:43;;;;;;;48.00;29.50;;;;;;;1.72;100.00;100747.75;5036132;28;20727;-75
2022/12/20 04:09:09;;;;;;;48.72;30.45;;;;;;;1.76;100.00;100750.38;5035945;28;20210;-75
2022/12/20 04:11:36;;;;;;;58.58;32.13;;;;;;;1.82;100.00;100760.13;5035504;28;20219;-74
2022/12/20 04:14:02;;;;;;;69.53;37.22;;;;;;;1.82;100.00;100750.38;5036679;28;20203;-76
2022/12/20 04:16:30;;;;;;;86.43;49.65;;;;;;;1.79;100.00;100744.22;5036219;28;20251;-75
2022/12/20 04:18:57;;;;;;;94.75;49.58;;;;;;;1.74;100.00;100738.00;5035313;28;20203;-74
2022/12/20 04:21:25;;;;;;;94.78;53.17;;;;;;;1.71;100.00;100748.66;5036060;28;20207;-76
2022/12/20 04:23:54;;;;;;;94.50;49.72;;;;;;;1.71;100.00;100749.53;5036602;28;20181;-75
2022/12/20 04:26:21;;;;;;;73.63;46.17;;;;;;;1.70;100.00;100750.44;5042244;28;20473;-77
2022/12/20 04:28:47;;;;;;;77.43;42.92;;;;;;;1.72;100.00;100739.78;5036235;28;20200;-76
2022/12/20 04:31:14;;;;;;;65.97;38.95;;;;;;;1.69;100.00;100743.34;5037757;28;20245;-76
2022/12/20 04:33:42;;;;;;;66.10;38.22;;;;;;;1.68;100.00;100728.31;5039372;28;20210;-75
2022/12/20 04:36:09;;;;;;;60.88;34.22;;;;;;;1.67;100.00;100724.78;5042322;28;20281;-76
2022/12/20 04:38:37;;;;;;;52.40;31.88;;;;;;;1.66;100.00;100733.63;5042028;28;20209;-75
2022/12/20 04:41:05;;;;;;;45.75;28.45;;;;;;;1.63;100.00;100724.78;5042856;28;20201;-75
2022/12/20 04:43:32;;;;;;;48.50;28.98;;;;;;;1.54;100.00;100716.84;5039964;28;20202;-74
2022/12/20 04:45:59;;;;;;;49.08;29.35;;;;;;;1.58;100.00;100705.31;5040378;28;20218;-74
2022/12/20 04:48:27;;;;;;;50.70;30.05;;;;;;;1.62;100.00;100692.03;5036567;28;20208;-75
2022/12/20 04:50:54;;;;;;;52.50;30.27;;;;;;;1.64;100.00;100684.06;5038291;28;20251;-75
2022/12/20 04:56:11;;;;;;;52.78;31.30;;;;;;;1.65;100.00;100689.38;5038028;22;20797;-71
2022/12/20 04:58:37;;;;;;;43.67;27.50;;;;;;;1.73;100.00;100699.97;5002327;28;20229;-74
2022/12/20 05:01:04;;;;;;;62.67;34.65;;;;;;;1.87;100.00;100727.31;5011261;28;20197;-72
2022/12/20 05:03:30;;;;;;;53.15;30.80;;;;;;;1.92;100.00;100726.44;5017549;28;20250;-73
2022/12/20 05:05:57;;;;;;;50.83;33.05;;;;;;;1.94;100.00;100727.31;5013446;28;20300;-73
2022/12/20 05:08:24;;;;;;;50.63;30.25;;;;;;;1.98;100.00;100723.75;5019452;28;20276;-73
2022/12/20 05:10:50;;;;;;;50.60;29.52;;;;;;;1.97;100.00;100717.56;5020654;28;20315;-74
2022/12/20 05:13:18;;;;;;;53.22;30.35;;;;;;;1.90;100.00;100717.56;5029827;28;20194;-74
2022/12/20 05:15:45;;;;;;;53.25;31.42;;;;;;;1.88;100.00;100717.59;5035968;28;20240;-74
2022/12/20 05:18:11;;;;;;;51.67;31.35;;;;;;;1.90;100.00;100720.22;5021810;28;20238;-74
2022/12/20 05:20:38;;;;;;;55.83;29.90;;;;;;;1.82;100.00;100718.50;5022788;28;20287;-74
2022/12/20 05:28:37;;;;;;;47.40;28.52;;;;;;;1.85;100.00;100721.16;5037908;28;20226;-75
2022/12/20 05:31:03;;;;;;;43.60;27.25;;;;;;;1.81;100.00;100713.19;5024387;28;20228;-72
2022/12/20 05:33:30;;;;;;;47.28;28.58;;;;;;;1.82;100.00;100720.28;5032363;28;20208;-73
2022/12/20 05:35:57;;;;;;;53.08;31.00;;;;;;;1.84;100.00;100721.16;5030340;28;20311;-72
2022/12/20 05:38:23;;;;;;;50.10;28.70;;;;;;;1.90;100.00;100713.19;5019749;28;20289;-72
2022/12/20 05:40:51;;;;;;;46.03;28.75;;;;;;;1.89;100.00;100706.06;5018615;28;20203;-72
2022/12/20 05:43:18;;;;;;;48.10;29.75;;;;;;;1.95;100.00;100694.56;5018152;28;20205;-72
2022/12/20 05:45:48;;;;;;;46.75;27.40;;;;;;;1.96;100.00;100693.66;5021300;28;20224;-72
2022/12/20 05:48:15;;;;;;;44.28;26.70;;;;;;;1.93;100.00;100702.53;5026867;28;20209;-75
2022/12/20 05:50:42;;;;;;;48.28;28.42;;;;;;;1.91;100.00;100690.16;5025885;28;20228;-71
2022/12/20 05:53:09;;;;;;;42.40;27.00;;;;;;;1.96;100.00;100689.22;5025990;28;20201;-73
2022/12/20 05:55:36;;;;;;;47.95;29.55;;;;;;;2.00;100.00;100680.34;5025387;28;20240;-73
2022/12/20 05:58:02;;;;;;;49.95;27.98;;;;;;;2.01;100.00;100686.53;5024275;28;20663;-74
2022/12/20 06:00:29;;;;;;;46.50;29.75;;;;;;;1.99;100.00;100678.59;5024699;28;20204;-75
2022/12/20 06:02:57;;;;;;;49.50;28.33;;;;;;;1.99;100.00;100683.00;5034236;28;20270;-73
2022/12/20 06:05:23;;;;;;;46.88;28.50;;;;;;;2.04;100.00;100682.09;5043100;28;20302;-73
2022/12/20 06:07:50;;;;;;;44.78;28.13;;;;;;;2.01;100.00;100676.81;5042241;28;20224;-73
2022/12/20 06:10:16;;;;;;;46.15;28.33;;;;;;;1.97;100.00;100682.16;5041128;28;20204;-73
2022/12/20 06:12:43;;;;;;;49.50;28.33;;;;;;;1.88;100.00;100675.97;5039732;28;20201;-72
2022/12/20 06:15:10;;;;;;;50.67;29.35;;;;;;;1.93;100.00;100681.28;5040032;28;20263;-74
2022/12/20 06:17:37;;;;;;;46.80;28.85;;;;;;;1.93;100.00;100677.75;5040723;28;20222;-73
2022/12/20 06:20:07;;;;;;;45.22;28.30;;;;;;;1.99;100.00;100672.38;5040872;28;20300;-74
2022/12/20 06:22:33;;;;;;;48.42;28.52;;;;;;;2.04;100.00;100666.16;5039877;28;20208;-73
2022/12/20 06:25:00;;;;;;;47.70;27.40;;;;;;;2.04;100.00;100652.88;5040222;28;20299;-74
2022/12/20 06:27:26;;;;;;;44.13;27.63;;;;;;;2.02;100.00;100661.75;5041962;28;20280;-73
2022/12/20 06:29:53;;;;;;;45.25;27.15;;;;;;;2.00;100.00;100666.19;5047763;28;20216;-72
2022/12/20 06:32:20;;;;;;;47.17;27.67;;;;;;;2.08;100.00;100669.66;5047550;28;20230;-73
2022/12/20 06:34:46;;;;;;;49.00;28.75;;;;;;;2.04;100.00;100660.84;5049024;28;20204;-73
2022/12/20 06:37:14;;;;;;;51.45;30.65;;;;;;;2.00;100.00;100674.16;5042001;28;20225;-73
2022/12/20 06:39:41;;;;;;;50.17;30.10;;;;;;;2.00;100.00;100680.34;5037415;28;20292;-73
2022/12/20 06:42:08;;;;;;;48.40;27.88;;;;;;;2.06;100.00;100696.25;5037043;28;20204;-74
2022/12/20 06:44:34;;;;;;;43.60;27.48;;;;;;;2.03;100.00;100696.25;5021160;28;20244;-73
2022/12/20 06:47:02;;;;;;;45.72;27.30;;;;;;;2.01;100.00;100699.81;4996768;28;20221;-73
2022/12/20 06:49:29;;;;;;;48.05;28.48;;;;;;;2.03;100.00;100698.03;4995708;28;20213;-73
2022/12/20 06:51:56;;;;;;;46.80;27.48;;;;;;;2.07;100.00;100702.44;4995255;28;20233;-73
2022/12/20 06:54:23;;;;;;;49.50;29.13;;;;;;;2.08;100.00;100701.53;4995977;28;20202;-73
2022/12/20 06:56:50;;;;;;;49.30;29.50;;;;;;;2.02;100.00;100702.47;4996423;28;20268;-73
2022/12/20 06:59:17;;;;;;;54.50;32.42;;;;;;;2.07;100.00;100702.44;4995864;28;20293;-73
2022/12/20 07:01:43;;;;;;;53.40;31.85;;;;;;;2.13;100.00;100706.84;4996025;28;20210;-72
2022/12/20 07:04:10;;;;;;;44.97;27.75;;;;;;;2.18;100.00;100694.41;4996682;28;20213;-74
2022/12/20 07:06:36;;;;;;;47.10;29.15;;;;;;;2.16;100.00;100681.13;4996522;28;20247;-73
2022/12/20 07:09:03;;;;;;;45.58;27.20;;;;;;;2.13;100.00;100683.81;4999512;28;20210;-72
2022/12/20 07:11:31;;;;;;;44.70;27.48;;;;;;;2.16;100.00;100678.47;4996650;28;20226;-74
2022/12/20 07:13:59;;;;;;;50.88;30.95;;;;;;;2.22;100.00;100681.09;4996490;28;20210;-72
2022/12/20 07:16:25;;;;;;;60.05;33.83;;;;;;;2.24;100.00;100674.00;5000157;28;20313;-74
2022/12/20 07:18:54;;;;;;;47.53;30.08;;;;;;;2.28;100.00;100685.47;5000460;28;20213;-73
2022/12/20 07:21:21;;;;;;;42.05;28.80;;;;;;;2.26;100.00;100668.66;5000565;28;20198;-73
2022/12/20 07:23:48;;;;;;;44.00;26.60;;;;;;;2.29;100.00;100658.88;5002744;28;20212;-71
2022/12/20 07:26:15;;;;;;;46.50;27.55;;;;;;;2.21;100.00;100659.84;5004360;28;20222;-73
2022/12/20 07:28:43;;;;;;;52.47;28.20;;;;;;;2.30;100.00;100657.09;5003448;28;20206;-74
2022/12/20 07:31:10;;;;;;;39.58;28.45;;;;;;;2.33;100.00;100653.53;5003772;28;20601;-72
2022/12/20 07:33:37;;;;;;;52.33;32.05;;;;;;;2.36;100.00;100653.53;5004291;28;20305;-73
2022/12/20 07:36:06;;;;;;;44.90;28.42;;;;;;;2.43;100.00;100644.63;5004014;28;20309;-73
2022/12/20 07:38:34;;;;;;;50.38;29.13;;;;;;;2.50;100.00;100647.19;5003823;28;20209;-73
2022/12/20 07:41:00;;;;;;;48.13;29.52;;;;;;;2.55;100.00;100644.50;5006726;28;20297;-73
2022/12/20 07:43:27;;;;;;;48.97;29.10;;;;;;;2.63;100.00;100641.78;5007522;28;20298;-72
2022/12/20 07:45:56;;;;;;;46.47;28.52;;;;;;;2.67;100.00;100647.06;5009114;28;20293;-75
2022/12/20 07:48:23;;;;;;;52.00;28.63;;;;;;;2.69;100.00;100642.63;5008258;28;20253;-72
2022/12/20 07:50:51;;;;;;;48.70;29.85;;;;;;;2.67;100.00;100647.06;5004105;28;20250;-72
2022/12/20 07:53:19;;;;;;;44.58;29.98;;;;;;;2.71;100.00;100640.84;5003530;28;20545;-73
2022/12/20 07:55:46;;;;;;;39.53;25.70;;;;;;;2.72;100.00;100647.03;5001876;28;20240;-74
2022/12/20 07:58:14;;;;;;;49.42;28.70;;;;;;;2.72;100.00;100647.91;5000394;28;20212;-73
2022/12/20 08:00:41;;;;;;;47.58;28.15;;;;;;;2.71;100.00;100645.25;5004495;28;20209;-73
2022/12/20 08:03:12;;;;;;;46.10;28.30;;;;;;;2.73;100.00;100648.78;5005338;28;20206;-73
2022/12/20 08:05:42;;;;;;;44.22;28.80;;;;;;;2.76;100.00;100637.22;5007077;28;20290;-72
2022/12/20 08:08:09;;;;;;;46.45;29.77;;;;;;;2.82;100.00;100623.88;5010648;28;20203;-73
2022/12/20 08:10:37;;;;;;;48.50;27.92;;;;;;;2.83;100.00;100612.34;5013363;28;20249;-73
2022/12/20 08:13:03;;;;;;;42.08;26.73;;;;;;;2.84;100.00;100619.41;5012088;28;20228;-73
2022/12/20 08:15:31;;;;;;;42.95;27.50;;;;;;;2.85;100.00;100624.72;5008350;28;20316;-73
2022/12/20 08:17:58;;;;;;;48.65;29.58;;;;;;;2.90;100.00;100614.03;5011350;28;20209;-74
2022/12/20 08:20:25;;;;;;;47.88;29.30;;;;;;;3.00;100.00;100613.03;5011036;28;20590;-73
2022/12/20 08:22:52;;;;;;;47.65;29.42;;;;;;;3.16;100.00;100612.88;5010335;28;20202;-72
2022/12/20 08:25:20;;;;;;;42.30;26.70;;;;;;;3.38;100.00;100611.69;5010774;28;20601;-71
2022/12/20 08:27:47;;;;;;;44.55;27.67;;;;;;;3.63;100.00;100609.59;5012626;28;20203;-72
2022/12/20 08:30:14;;;;;;;40.97;27.67;;;;;;;3.92;100.00;100610.97;5013049;28;20264;-72
2022/12/20 08:32:41;;;;;;;39.97;26.23;;;;;;;4.24;100.00;100621.13;5010424;28;20246;-73
2022/12/20 08:35:08;;;;;;;39.25;25.63;;;;;;;4.65;100.00;100616.03;5009240;28;20203;-72
2022/12/20 08:37:36;;;;;;;40.58;25.83;;;;;;;5.03;100.00;100603.78;5009721;28;20294;-74
2022/12/20 08:40:03;;;;;;;33.20;24.40;;;;;;;5.47;100.00;100610.00;5008748;28;20267;-74
2022/12/20 08:42:29;;;;;;;33.97;22.52;;;;;;;6.19;100.00;100621.78;5001917;28;20290;-73
2022/12/20 08:44:56;;;;;;;33.25;21.60;;;;;;;5.95;100.00;100610.75;5006814;28;20249;-73
2022/12/20 08:47:22;;;;;;;33.83;21.67;;;;;;;5.55;100.00;100622.28;5005190;28;20213;-74
2022/12/20 08:49:49;;;;;;;33.10;23.88;;;;;;;5.12;100.00;100609.81;5009554;28;20207;-74
2022/12/20 08:52:15;;;;;;;36.83;23.55;;;;;;;4.72;100.00;100602.53;5001472;28;20219;-76
2022/12/20 08:54:43;;;;;;;33.03;22.92;;;;;;;4.32;100.00;100619.25;5000034;28;20206;-74
2022/12/20 08:57:10;;;;;;;37.05;24.27;;;;;;;4.22;100.00;100624.75;5001521;28;20241;-73
2022/12/20 08:59:36;;;;;;;34.35;22.65;;;;;;;4.10;100.00;100634.69;5008184;28;20238;-73
2022/12/20 09:02:03;;;;;;;39.28;23.65;;;;;;;4.08;100.00;100630.28;5002283;28;20203;-74
2022/12/20 09:04:30;;;;;;;38.38;25.20;;;;;;;4.06;100.00;100642.75;4998984;28;20700;-74
2022/12/20 09:06:56;;;;;;;38.92;26.60;;;;;;;3.71;100.00;100626.38;5002548;28;20231;-74
2022/12/20 09:09:23;;;;;;;47.25;28.80;;;;;;;3.83;100.00;100638.63;5012432;28;20231;-72
2022/12/20 09:11:51;;;;;;;41.85;26.50;;;;;;;3.82;100.00;100622.66;5012054;28;20310;-73
2022/12/20 09:14:18;;;;;;;44.72;28.52;;;;;;;3.86;100.00;100635.91;5011107;28;20271;-72
2022/12/20 09:16:44;;;;;;;41.08;28.63;;;;;;;3.90;100.00;100628.78;5010426;28;20227;-72
2022/12/20 09:19:13;;;;;;;43.83;27.92;;;;;;;3.92;100.00;100627.84;5011521;28;20207;-74
2022/12/20 09:21:39;;;;;;;47.95;27.27;;;;;;;4.00;100.00;100622.38;5009199;28;20267;-75
2022/12/20 09:24:07;;;;;;;47.08;29.13;;;;;;;4.01;100.00;100621.50;5007854;28;20234;-72
2022/12/20 09:26:34;;;;;;;41.15;27.10;;;;;;;4.05;100.00;100617.91;5006057;28;20227;-74
2022/12/20 09:29:04;;;;;;;37.47;25.63;;;;;;;4.12;100.00;100610.69;5007341;28;20242;-74
2022/12/20 09:31:30;;;;;;;40.42;25.92;;;;;;;4.19;100.00;100609.69;5006577;28;20327;-73
2022/12/20 09:33:58;;;;;;;40.35;26.65;;;;;;;4.24;100.00;100607.81;5007320;28;20210;-73
2022/12/20 09:36:27;;;;;;;35.85;25.60;;;;;;;4.28;100.00;100620.19;5003712;28;20229;-71
2022/12/20 09:38:55;;;;;;;39.40;25.65;;;;;;;4.22;100.00;100609.63;5001848;28;20674;-73
2022/12/20 09:41:28;;;;;;;36.88;25.70;;;;;;;4.26;100.00;100603.34;5002487;28;20235;-72
2022/12/20 09:43:55;;;;;;;40.63;26.13;;;;;;;4.32;100.00;100605.00;5004764;28;20206;-74
2022/12/20 09:46:25;;;;;;;37.75;25.77;;;;;;;4.40;100.00;100603.09;5003523;28;20223;-73
2022/12/20 09:48:52;;;;;;;37.00;26.58;;;;;;;4.50;100.00;100598.47;5005791;28;20238;-73
2022/12/20 09:51:34;;;;;;;37.45;25.52;;;;;;;4.52;100.00;100594.91;5005590;28;20207;-72
2022/12/20 09:54:13;;;;;;;42.53;26.23;;;;;;;4.58;100.00;100596.56;5004163;28;20194;-72
2022/12/20 09:56:43;;;;;;;35.70;26.10;;;;;;;4.63;100.00;100592.03;5000984;28;20238;-73
2022/12/20 09:59:13;;;;;;;37.03;24.08;;;;;;;4.70;100.00;100579.47;4999754;28;20215;-73
2022/12/20 10:01:44;;;;;;;40.67;26.38;;;;;;;4.77;100.00;100575.78;4999614;28;20205;-72
2022/12/20 10:04:27;;;;;;;36.47;24.50;;;;;;;4.88;100.00;100578.25;4999688;28;20191;-72
2022/12/20 10:07:07;;;;;;;35.65;24.35;;;;;;;4.96;100.00;100579.84;4998932;28;20242;-73
2022/12/20 10:09:59;;;;;;;38.05;25.83;;;;;;;4.96;100.00;100579.84;4997975;28;20614;-73
2022/12/20 10:12:39;;;;;;;44.65;25.38;;;;;;;4.95;100.00;100577.22;4998583;28;20314;-73
2022/12/20 10:15:19;;;;;;;40.33;24.70;;;;;;;4.89;100.00;100562.22;5000007;28;20669;-73
2022/12/20 10:18:04;;;;;;;35.97;24.20;;;;;;;4.88;100.00;100570.25;5004427;28;20226;-73
2022/12/20 10:20:41;;;;;;;34.50;22.67;;;;;;;4.88;100.00;100573.78;5007066;28;20290;-72
2022/12/20 10:23:14;;;;;;;35.97;25.70;;;;;;;4.84;100.00;100565.84;5002857;28;20658;-73
2022/12/20 10:25:43;;;;;;;41.78;25.33;;;;;;;4.84;100.00;100561.44;4996671;28;20226;-73
2022/12/20 10:28:15;;;;;;;37.53;26.10;;;;;;;4.90;100.00;100560.41;4996827;28;20234;-73
2022/12/20 10:30:42;;;;;;;44.03;26.02;;;;;;;4.95;100.00;100571.88;4998532;28;20188;-72
2022/12/20 10:33:21;;;;;;;38.63;27.13;;;;;;;5.05;100.00;100568.13;4997535;28;20227;-73
2022/12/20 10:35:49;;;;;;;37.67;25.20;;;;;;;5.05;100.00;100554.78;5000115;28;20602;-73
2022/12/20 10:38:17;;;;;;;38.95;24.35;;;;;;;5.03;100.00;100551.25;4998339;28;20234;-74
2022/12/20 10:40:46;;;;;;;38.25;25.95;;;;;;;5.00;100.00;100543.31;4999599;28;20214;-73
2022/12/20 10:43:17;;;;;;;40.50;26.13;;;;;;;4.93;100.00;100547.91;5000632;28;20206;-74
2022/12/20 10:45:45;;;;;;;36.85;25.13;;;;;;;4.89;100.00;100543.53;5002103;28;20227;-74
2022/12/20 10:48:29;;;;;;;34.00;24.00;;;;;;;4.90;100.00;100544.41;5000499;28;20211;-73
2022/12/20 10:50:58;;;;;;;38.67;25.25;;;;;;;4.92;100.00;100550.59;5000940;28;20251;-73
2022/12/20 10:53:26;;;;;;;36.92;25.48;;;;;;;4.99;100.00;100546.88;4999940;28;20305;-73
2022/12/20 10:55:53;;;;;;;35.13;26.17;;;;;;;5.02;100.00;100546.84;5019020;22;21331;-74
2022/12/20 10:58:35;;;;;;;41.55;25.88;;;;;;;5.10;100.00;100536.00;5058866;28;20244;-73
2022/12/20 11:01:12;;;;;;;35.80;24.58;;;;;;;5.21;100.00;100525.97;5059906;28;20228;-73
2022/12/20 11:03:53;;;;;;;33.05;24.65;;;;;;;5.32;100.00;100523.06;5061431;28;20184;-75
2022/12/20 11:06:23;;;;;;;36.80;26.50;;;;;;;5.38;100.00;100522.91;5061985;28;20587;-75
2022/12/20 11:08:51;;;;;;;41.92;25.80;;;;;;;5.50;100.00;100521.78;5061023;28;20212;-72
2022/12/20 11:11:19;;;;;;;34.22;24.90;;;;;;;5.50;100.00;100511.09;5061839;28;20201;-73
2022/12/20 11:13:46;;;;;;;29.83;23.00;;;;;;;5.47;100.00;100513.81;5062040;28;20320;-74
2022/12/20 11:16:24;;;;;;;31.00;22.27;;;;;;;5.54;100.00;100504.75;5061379;28;20307;-74
2022/12/20 11:19:02;;;;;;;30.67;22.50;;;;;;;5.61;100.00;100495.72;5059854;28;20203;-74
2022/12/20 11:21:37;;;;;;;32.63;23.40;;;;;;;5.62;100.00;100501.00;5058193;28;20181;-73
2022/12/20 11:24:11;;;;;;;31.92;23.25;;;;;;;5.74;100.00;100496.28;5057329;28;20193;-75
2022/12/20 11:27:07;;;;;;;28.70;20.70;;;;;;;5.91;100.00;100485.19;5054372;28;20378;-73